sensor_id;sensor_type;location;lat;lon;timestamp;pressure;altitude;pressure_sealevel;temperature;humidity
73671;BME280;61968;48.178;11.566;2023-02-14T00:00:50;97571.63;;;1.80;46.75
73671;BME280;61968;48.178;11.566;2023-02-14T00:03:17;97572.84;;;1.76;47.58
73671;BME280;61968;48.178;11.566;2023-02-14T00:05:43;97571.09;;;1.86;46.46
73671;BME280;61968;48.178;11.566;2023-02-14T00:08:09;97564.28;;;1.95;46.80
73671;BME280;61968;48.178;11.566;2023-02-14T00:10:36;97564.03;;;1.98;46.93
73671;BME280;61968;48.178;11.566;2023-02-14T00:13:04;97578.09;;;1.86;47.07
73671;BME280;61968;48.178;11.566;2023-02-14T00:15:30;97582.66;;;1.84;47.08
73671;BME280;61968;48.178;11.566;2023-02-14T00:17:56;97576.72;;;1.82;47.20
73671;BME280;61968;48.178;11.566;2023-02-14T00:20:25;97574.41;;;1.88;46.57
73671;BME280;61968;48.178;11.566;2023-02-14T00:22:52;97578.38;;;1.83;46.72
73671;BME280;61968;48.178;11.566;2023-02-14T00:25:18;97569.16;;;1.79;47.16
73671;BME280;61968;48.178;11.566;2023-02-14T00:27:45;97568.91;;;1.82;47.18
73671;BME280;61968;48.178;11.566;2023-02-14T00:30:13;97577.25;;;1.76;47.23
73671;BME280;61968;48.178;11.566;2023-02-14T00:32:41;97575.72;;;1.73;46.84
73671;BME280;61968;48.178;11.566;2023-02-14T00:35:08;97577.63;;;1.71;46.60
73671;BME280;61968;48.178;11.566;2023-02-14T00:37:35;97579.66;;;1.67;47.19
73671;BME280;61968;48.178;11.566;2023-02-14T00:40:02;97578.47;;;1.71;46.51
73671;BME280;61968;48.178;11.566;2023-02-14T00:42:29;97570.38;;;1.75;46.87
73671;BME280;61968;48.178;11.566;2023-02-14T00:44:55;97567.81;;;1.84;46.51
73671;BME280;61968;48.178;11.566;2023-02-14T00:47:25;97580.28;;;1.81;46.34
73671;BME280;61968;48.178;11.566;2023-02-14T00:49:56;97577.25;;;1.76;46.91
73671;BME280;61968;48.178;11.566;2023-02-14T00:52:27;97571.78;;;1.79;45.88
73671;BME280;61968;48.178;11.566;2023-02-14T00:54:53;97577.31;;;1.64;46.22
73671;BME280;61968;48.178;11.566;2023-02-14T00:57:20;97584.94;;;1.56;46.59
73671;BME280;61968;48.178;11.566;2023-02-14T00:59:46;97588.97;;;1.60;46.73
73671;BME280;61968;48.178;11.566;2023-02-14T01:02:13;97590.66;;;1.50;46.25
73671;BME280;61968;48.178;11.566;2023-02-14T01:04:41;97587.28;;;1.59;46.84
73671;BME280;61968;48.178;11.566;2023-02-14T01:07:07;97586.59;;;1.57;46.57
73671;BME280;61968;48.178;11.566;2023-02-14T01:09:37;97590.53;;;1.52;46.16
73671;BME280;61968;48.178;11.566;2023-02-14T01:12:04;97586.66;;;1.46;46.54
73671;BME280;61968;48.178;11.566;2023-02-14T01:14:30;97591.16;;;1.44;46.15
73671;BME280;61968;48.178;11.566;2023-02-14T01:16:57;97591.41;;;1.41;47.08
73671;BME280;61968;48.178;11.566;2023-02-14T01:19:23;97582.41;;;1.45;46.61
73671;BME280;61968;48.178;11.566;2023-02-14T01:21:51;97577.31;;;1.43;46.62
73671;BME280;61968;48.178;11.566;2023-02-14T01:24:17;97576.25;;;1.46;46.50
73671;BME280;61968;48.178;11.566;2023-02-14T01:26:44;97585.13;;;1.43;46.68
73671;BME280;61968;48.178;11.566;2023-02-14T01:29:10;97581.34;;;1.47;47.04
73671;BME280;61968;48.178;11.566;2023-02-14T01:31:37;97579.34;;;1.61;46.07
73671;BME280;61968;48.178;11.566;2023-02-14T01:34:03;97583.78;;;1.70;45.49
73671;BME280;61968;48.178;11.566;2023-02-14T01:36:31;97591.06;;;1.66;45.96
73671;BME280;61968;48.178;11.566;2023-02-14T01:39:02;97594.53;;;1.56;46.39
73671;BME280;61968;48.178;11.566;2023-02-14T01:41:31;97591.94;;;1.56;46.25
73671;BME280;61968;48.178;11.566;2023-02-14T01:43:59;97587.16;;;1.61;45.94
73671;BME280;61968;48.178;11.566;2023-02-14T01:46:28;97587.13;;;1.51;46.44
73671;BME280;61968;48.178;11.566;2023-02-14T01:48:59;97590.34;;;1.43;46.42
73671;BME280;61968;48.178;11.566;2023-02-14T01:51:27;97596.03;;;1.48;46.49
73671;BME280;61968;48.178;11.566;2023-02-14T01:53:55;97581.44;;;1.46;45.72
73671;BME280;61968;48.178;11.566;2023-02-14T01:56:28;97595.44;;;1.45;46.02
73671;BME280;61968;48.178;11.566;2023-02-14T01:58:58;97597.09;;;1.35;46.47
73671;BME280;61968;48.178;11.566;2023-02-14T02:01:27;97595.09;;;1.17;46.91
73671;BME280;61968;48.178;11.566;2023-02-14T02:03:58;97590.75;;;1.27;46.98
73671;BME280;61968;48.178;11.566;2023-02-14T02:06:28;97590.50;;;1.31;46.85
73671;BME280;61968;48.178;11.566;2023-02-14T02:09:06;97590.50;;;1.42;46.18
73671;BME280;61968;48.178;11.566;2023-02-14T02:11:35;97594.16;;;1.39;46.27
73671;BME280;61968;48.178;11.566;2023-02-14T02:14:03;97589.78;;;1.40;46.24
73671;BME280;61968;48.178;11.566;2023-02-14T02:16:57;97590.16;;;1.35;45.91
73671;BME280;61968;48.178;11.566;2023-02-14T02:19:51;97586.50;;;1.26;45.69
73671;BME280;61968;48.178;11.566;2023-02-14T02:22:43;97582.41;;;1.13;45.69
73671;BME280;61968;48.178;11.566;2023-02-14T02:25:27;97586.34;;;1.07;46.48
73671;BME280;61968;48.178;11.566;2023-02-14T02:28:24;97581.34;;;1.15;46.04
73671;BME280;61968;48.178;11.566;2023-02-14T02:31:10;97581.69;;;1.11;46.06
73671;BME280;61968;48.178;11.566;2023-02-14T02:34:02;97584.00;;;1.04;46.35
73671;BME280;61968;48.178;11.566;2023-02-14T02:36:56;97582.91;;;1.07;45.83
73671;BME280;61968;48.178;11.566;2023-02-14T02:39:44;97585.06;;;1.01;45.91
73671;BME280;61968;48.178;11.566;2023-02-14T02:42:23;97575.25;;;1.05;46.08
73671;BME280;61968;48.178;11.566;2023-02-14T02:45:01;97572.50;;;1.07;45.91
73671;BME280;61968;48.178;11.566;2023-02-14T02:47:37;97569.31;;;1.03;45.84
73671;BME280;61968;48.178;11.566;2023-02-14T02:50:17;97562.72;;;0.99;46.65
73671;BME280;61968;48.178;11.566;2023-02-14T02:53:14;97563.97;;;1.04;45.96
73671;BME280;61968;48.178;11.566;2023-02-14T02:55:48;97564.75;;;1.16;45.72
73671;BME280;61968;48.178;11.566;2023-02-14T02:58:35;97557.75;;;1.17;46.02
73671;BME280;61968;48.178;11.566;2023-02-14T03:01:07;97562.66;;;1.10;45.74
73671;BME280;61968;48.178;11.566;2023-02-14T03:03:36;97567.50;;;1.15;45.53
73671;BME280;61968;48.178;11.566;2023-02-14T03:06:20;97561.81;;;1.10;45.97
73671;BME280;61968;48.178;11.566;2023-02-14T03:08:48;97560.50;;;1.15;45.42
73671;BME280;61968;48.178;11.566;2023-02-14T03:11:15;97558.06;;;1.02;45.29
73671;BME280;61968;48.178;11.566;2023-02-14T03:13:57;97558.00;;;0.93;45.71
73671;BME280;61968;48.178;11.566;2023-02-14T03:16:32;97553.97;;;0.89;45.67
73671;BME280;61968;48.178;11.566;2023-02-14T03:19:23;97556.00;;;0.85;46.51
73671;BME280;61968;48.178;11.566;2023-02-14T03:22:16;97568.44;;;0.82;46.35
73671;BME280;61968;48.178;11.566;2023-02-14T03:25:09;97574.56;;;0.92;46.19
73671;BME280;61968;48.178;11.566;2023-02-14T03:27:40;97568.53;;;0.91;46.05
73671;BME280;61968;48.178;11.566;2023-02-14T03:30:12;97571.28;;;0.90;46.27
73671;BME280;61968;48.178;11.566;2023-02-14T03:32:44;97562.75;;;0.88;46.02
73671;BME280;61968;48.178;11.566;2023-02-14T03:35:17;97555.19;;;0.85;46.29
73671;BME280;61968;48.178;11.566;2023-02-14T03:37:48;97557.91;;;0.83;46.45
73671;BME280;61968;48.178;11.566;2023-02-14T03:40:21;97549.75;;;0.76;46.74
73671;BME280;61968;48.178;11.566;2023-02-14T03:42:52;97565.69;;;0.94;46.42
73671;BME280;61968;48.178;11.566;2023-02-14T03:45:24;97575.28;;;0.94;46.19
73671;BME280;61968;48.178;11.566;2023-02-14T03:47:53;97570.84;;;1.06;45.57
73671;BME280;61968;48.178;11.566;2023-02-14T03:50:21;97576.91;;;0.95;45.73
73671;BME280;61968;48.178;11.566;2023-02-14T03:52:49;97570.34;;;0.79;45.96
73671;BME280;61968;48.178;11.566;2023-02-14T03:55:23;97564.81;;;0.73;45.67
73671;BME280;61968;48.178;11.566;2023-02-14T03:57:54;97572.72;;;0.71;46.69
73671;BME280;61968;48.178;11.566;2023-02-14T04:00:24;97571.66;;;0.74;46.66
73671;BME280;61968;48.178;11.566;2023-02-14T04:02:54;97577.56;;;0.87;46.14
73671;BME280;61968;48.178;11.566;2023-02-14T04:05:25;97570.88;;;0.94;45.83
73671;BME280;61968;48.178;11.566;2023-02-14T04:07:54;97573.41;;;0.85;45.62
73671;BME280;61968;48.178;11.566;2023-02-14T04:10:23;97562.28;;;0.83;45.77
73671;BME280;61968;48.178;11.566;2023-02-14T04:12:51;97565.38;;;0.76;45.90
73671;BME280;61968;48.178;11.566;2023-02-14T04:15:17;97568.69;;;0.78;46.23
73671;BME280;61968;48.178;11.566;2023-02-14T04:17:44;97567.03;;;0.77;46.14
73671;BME280;61968;48.178;11.566;2023-02-14T04:20:28;97567.03;;;0.77;45.68
73671;BME280;61968;48.178;11.566;2023-02-14T04:22:54;97566.34;;;0.75;46.39
73671;BME280;61968;48.178;11.566;2023-02-14T04:25:23;97563.16;;;0.72;46.24
73671;BME280;61968;48.178;11.566;2023-02-14T04:27:49;97572.84;;;0.81;45.96
73671;BME280;61968;48.178;11.566;2023-02-14T04:30:17;97566.44;;;0.85;45.85
73671;BME280;61968;48.178;11.566;2023-02-14T04:32:45;97562.28;;;0.83;45.69
73671;BME280;61968;48.178;11.566;2023-02-14T04:35:12;97559.94;;;0.79;45.33
73671;BME280;61968;48.178;11.566;2023-02-14T04:37:38;97563.03;;;0.73;46.09
73671;BME280;61968;48.178;11.566;2023-02-14T04:40:06;97560.91;;;0.67;46.04
73671;BME280;61968;48.178;11.566;2023-02-14T04:42:33;97553.13;;;0.56;46.45
73671;BME280;61968;48.178;11.566;2023-02-14T04:45:00;97561.41;;;0.61;46.39
73671;BME280;61968;48.178;11.566;2023-02-14T04:47:26;97555.13;;;0.64;46.25
73671;BME280;61968;48.178;11.566;2023-02-14T04:49:53;97554.75;;;0.68;46.19
73671;BME280;61968;48.178;11.566;2023-02-14T04:52:19;97558.63;;;0.74;46.17
73671;BME280;61968;48.178;11.566;2023-02-14T04:54:46;97549.19;;;0.73;45.83
73671;BME280;61968;48.178;11.566;2023-02-14T04:57:13;97542.91;;;0.75;45.80
73671;BME280;61968;48.178;11.566;2023-02-14T04:59:41;97533.91;;;0.68;46.33
73671;BME280;61968;48.178;11.566;2023-02-14T05:02:07;97545.44;;;0.66;45.86
73671;BME280;61968;48.178;11.566;2023-02-14T05:04:34;97549.34;;;0.60;46.79
73671;BME280;61968;48.178;11.566;2023-02-14T05:07:00;97538.19;;;0.69;46.43
73671;BME280;61968;48.178;11.566;2023-02-14T05:09:26;97541.38;;;0.73;46.29
73671;BME280;61968;48.178;11.566;2023-02-14T05:11:53;97534.38;;;0.73;46.08
73671;BME280;61968;48.178;11.566;2023-02-14T05:14:20;97533.00;;;0.69;46.66
73671;BME280;61968;48.178;11.566;2023-02-14T05:16:48;97519.66;;;0.63;46.69
73671;BME280;61968;48.178;11.566;2023-02-14T05:19:14;97522.03;;;0.54;46.79
73671;BME280;61968;48.178;11.566;2023-02-14T05:21:40;97524.97;;;0.61;46.61
73671;BME280;61968;48.178;11.566;2023-02-14T05:24:07;97532.41;;;0.66;46.74
73671;BME280;61968;48.178;11.566;2023-02-14T05:26:33;97527.31;;;0.64;46.65
73671;BME280;61968;48.178;11.566;2023-02-14T05:29:00;97520.50;;;0.52;46.96
73671;BME280;61968;48.178;11.566;2023-02-14T05:31:26;97526.34;;;0.65;46.36
73671;BME280;61968;48.178;11.566;2023-02-14T05:33:54;97529.19;;;0.73;46.25
73671;BME280;61968;48.178;11.566;2023-02-14T05:36:21;97523.81;;;0.54;46.62
73671;BME280;61968;48.178;11.566;2023-02-14T05:38:47;97517.81;;;0.42;46.80
73671;BME280;61968;48.178;11.566;2023-02-14T05:41:13;97516.75;;;0.45;47.23
73671;BME280;61968;48.178;11.566;2023-02-14T05:43:40;97528.78;;;0.46;46.91
73671;BME280;61968;48.178;11.566;2023-02-14T05:46:06;97526.25;;;0.67;46.39
73671;BME280;61968;48.178;11.566;2023-02-14T05:48:33;97532.41;;;0.66;46.32
73671;BME280;61968;48.178;11.566;2023-02-14T05:51:03;97534.56;;;0.61;46.73
73671;BME280;61968;48.178;11.566;2023-02-14T05:53:30;97529.88;;;0.43;46.81
73671;BME280;61968;48.178;11.566;2023-02-14T05:55:56;97528.00;;;0.34;47.30
73671;BME280;61968;48.178;11.566;2023-02-14T05:58:23;97538.97;;;0.38;47.40
73671;BME280;61968;48.178;11.566;2023-02-14T06:00:49;97531.63;;;0.54;46.57
73671;BME280;61968;48.178;11.566;2023-02-14T06:03:16;97535.13;;;0.64;46.22
73671;BME280;61968;48.178;11.566;2023-02-14T06:05:42;97536.00;;;0.53;46.76
73671;BME280;61968;48.178;11.566;2023-02-14T06:08:10;97540.66;;;0.39;47.25
73671;BME280;61968;48.178;11.566;2023-02-14T06:10:36;97550.09;;;0.40;47.20
73671;BME280;61968;48.178;11.566;2023-02-14T06:13:03;97543.69;;;0.44;47.21
73671;BME280;61968;48.178;11.566;2023-02-14T06:15:33;97545.50;;;0.32;47.65
73671;BME280;61968;48.178;11.566;2023-02-14T06:17:59;97551.16;;;0.37;47.41
73671;BME280;61968;48.178;11.566;2023-02-14T06:20:26;97548.22;;;0.42;47.21
73671;BME280;61968;48.178;11.566;2023-02-14T06:22:52;97554.09;;;0.44;47.42
73671;BME280;61968;48.178;11.566;2023-02-14T06:25:21;97547.72;;;0.48;47.00
73671;BME280;61968;48.178;11.566;2023-02-14T06:27:48;97551.25;;;0.47;47.24
73671;BME280;61968;48.178;11.566;2023-02-14T06:30:15;97547.25;;;0.54;47.07
73671;BME280;61968;48.178;11.566;2023-02-14T06:32:42;97545.31;;;0.56;47.10
73671;BME280;61968;48.178;11.566;2023-02-14T06:35:09;97554.16;;;0.65;47.04
73671;BME280;61968;48.178;11.566;2023-02-14T06:37:35;97562.53;;;0.79;47.09
73671;BME280;61968;48.178;11.566;2023-02-14T06:40:03;97552.38;;;0.76;48.22
73671;BME280;61968;48.178;11.566;2023-02-14T06:42:31;97551.28;;;0.79;48.20
73671;BME280;61968;48.178;11.566;2023-02-14T06:44:57;97555.47;;;0.70;47.47
73671;BME280;61968;48.178;11.566;2023-02-14T06:47:24;97553.31;;;0.75;47.26
73671;BME280;61968;48.178;11.566;2023-02-14T06:49:50;97560.41;;;0.73;47.20
73671;BME280;61968;48.178;11.566;2023-02-14T06:52:17;97558.53;;;0.75;47.36
73671;BME280;61968;48.178;11.566;2023-02-14T06:54:43;97554.00;;;0.77;47.05
73671;BME280;61968;48.178;11.566;2023-02-14T06:57:10;97552.75;;;0.72;46.93
73671;BME280;61968;48.178;11.566;2023-02-14T06:59:37;97554.63;;;0.70;46.76
73671;BME280;61968;48.178;11.566;2023-02-14T07:02:04;97546.03;;;0.58;47.23
73671;BME280;61968;48.178;11.566;2023-02-14T07:04:30;97553.72;;;0.60;47.19
73671;BME280;61968;48.178;11.566;2023-02-14T07:06:57;97551.47;;;0.66;46.56
73671;BME280;61968;48.178;11.566;2023-02-14T07:09:25;97549.28;;;0.71;47.23
73671;BME280;61968;48.178;11.566;2023-02-14T07:11:51;97541.47;;;0.71;46.95
73671;BME280;61968;48.178;11.566;2023-02-14T07:14:18;97555.47;;;0.70;46.93
73671;BME280;61968;48.178;11.566;2023-02-14T07:16:46;97548.47;;;0.71;46.96
73671;BME280;61968;48.178;11.566;2023-02-14T07:19:12;97551.47;;;0.66;47.11
73671;BME280;61968;48.178;11.566;2023-02-14T07:21:39;97548.47;;;0.71;46.95
73671;BME280;61968;48.178;11.566;2023-02-14T07:24:05;97555.47;;;0.70;46.99
73671;BME280;61968;48.178;11.566;2023-02-14T07:26:32;97550.84;;;0.74;46.98
73671;BME280;61968;48.178;11.566;2023-02-14T07:28:58;97551.66;;;0.74;47.23
73671;BME280;61968;48.178;11.566;2023-02-14T07:31:25;97544.09;;;0.71;47.19
73671;BME280;61968;48.178;11.566;2023-02-14T07:33:53;97548.94;;;0.76;47.14
73671;BME280;61968;48.178;11.566;2023-02-14T07:36:19;97547.63;;;0.82;46.72
73671;BME280;61968;48.178;11.566;2023-02-14T07:38:45;97544.63;;;0.86;46.92
73671;BME280;61968;48.178;11.566;2023-02-14T07:41:12;97540.03;;;0.90;46.32
73671;BME280;61968;48.178;11.566;2023-02-14T07:43:38;97536.31;;;0.92;45.60
73671;BME280;61968;48.178;11.566;2023-02-14T07:46:05;97533.44;;;0.74;46.12
73671;BME280;61968;48.178;11.566;2023-02-14T07:48:32;97531.91;;;0.72;47.09
73671;BME280;61968;48.178;11.566;2023-02-14T07:51:01;97521.25;;;0.75;46.82
73671;BME280;61968;48.178;11.566;2023-02-14T07:53:27;97523.88;;;0.75;47.08
73671;BME280;61968;48.178;11.566;2023-02-14T07:55:53;97531.19;;;0.81;47.09
73671;BME280;61968;48.178;11.566;2023-02-14T07:58:20;97528.19;;;0.86;46.76
73671;BME280;61968;48.178;11.566;2023-02-14T08:00:47;97526.78;;;0.82;46.91
73671;BME280;61968;48.178;11.566;2023-02-14T08:03:13;97525.13;;;0.80;46.94
73671;BME280;61968;48.178;11.566;2023-02-14T08:05:40;97523.78;;;0.86;46.59
73671;BME280;61968;48.178;11.566;2023-02-14T08:08:08;97524.50;;;0.88;46.34
73671;BME280;61968;48.178;11.566;2023-02-14T08:10:34;97510.41;;;0.91;47.00
73671;BME280;61968;48.178;11.566;2023-02-14T08:13:01;97511.81;;;0.95;46.76
73671;BME280;61968;48.178;11.566;2023-02-14T08:15:28;97510.28;;;0.92;46.34
73671;BME280;61968;48.178;11.566;2023-02-14T08:18:12;97501.88;;;0.89;46.66
73671;BME280;61968;48.178;11.566;2023-02-14T08:20:39;97505.06;;;0.92;46.38
73671;BME280;61968;48.178;11.566;2023-02-14T08:23:09;97505.31;;;0.89;46.80
73671;BME280;61968;48.178;11.566;2023-02-14T08:25:35;97504.94;;;0.94;46.72
73671;BME280;61968;48.178;11.566;2023-02-14T08:28:02;97503.44;;;1.12;46.58
73671;BME280;61968;48.178;11.566;2023-02-14T08:30:29;97515.19;;;1.07;46.27
73671;BME280;61968;48.178;11.566;2023-02-14T08:32:56;97519.56;;;1.06;46.34
73671;BME280;61968;48.178;11.566;2023-02-14T08:35:22;97516.56;;;1.11;46.92
73671;BME280;61968;48.178;11.566;2023-02-14T08:37:49;97512.56;;;1.07;46.78
73671;BME280;61968;48.178;11.566;2023-02-14T08:40:17;97514.09;;;1.09;46.90
73671;BME280;61968;48.178;11.566;2023-02-14T08:42:44;97513.16;;;1.10;46.50
73671;BME280;61968;48.178;11.566;2023-02-14T08:45:10;97521.53;;;1.14;46.84
73671;BME280;61968;48.178;11.566;2023-02-14T08:47:37;97517.09;;;1.25;46.12
73671;BME280;61968;48.178;11.566;2023-02-14T08:50:06;97513.19;;;1.20;46.23
73671;BME280;61968;48.178;11.566;2023-02-14T08:52:33;97514.88;;;1.21;46.71
73671;BME280;61968;48.178;11.566;2023-02-14T08:54:59;97510.13;;;1.26;46.41
73671;BME280;61968;48.178;11.566;2023-02-14T08:57:27;97516.41;;;1.23;46.69
73671;BME280;61968;48.178;11.566;2023-02-14T08:59:54;97531.53;;;1.30;46.11
73671;BME280;61968;48.178;11.566;2023-02-14T09:02:20;97534.25;;;1.28;46.42
73671;BME280;61968;48.178;11.566;2023-02-14T09:04:47;97538.78;;;1.26;46.80
73671;BME280;61968;48.178;11.566;2023-02-14T09:07:13;97527.25;;;1.29;46.92
73671;BME280;61968;48.178;11.566;2023-02-14T09:09:39;97536.75;;;1.30;46.79
73671;BME280;61968;48.178;11.566;2023-02-14T09:12:08;97536.00;;;1.39;46.82
73671;BME280;61968;48.178;11.566;2023-02-14T09:14:37;97539.03;;;1.44;46.33
73671;BME280;61968;48.178;11.566;2023-02-14T09:17:04;97537.66;;;1.40;46.26
73671;BME280;61968;48.178;11.566;2023-02-14T09:19:31;97533.97;;;1.42;46.44
73671;BME280;61968;48.178;11.566;2023-02-14T09:21:57;97533.97;;;1.42;46.59
73671;BME280;61968;48.178;11.566;2023-02-14T09:24:24;97527.41;;;1.48;46.34
73671;BME280;61968;48.178;11.566;2023-02-14T09:26:52;97528.28;;;1.37;46.34
73671;BME280;61968;48.178;11.566;2023-02-14T09:29:18;97528.41;;;1.36;46.37
73671;BME280;61968;48.178;11.566;2023-02-14T09:31:46;97518.44;;;1.41;46.55
73671;BME280;61968;48.178;11.566;2023-02-14T09:34:12;97521.53;;;1.35;46.65
73671;BME280;61968;48.178;11.566;2023-02-14T09:36:39;97526.31;;;1.30;46.75
73671;BME280;61968;48.178;11.566;2023-02-14T09:39:05;97526.16;;;1.42;47.00
73671;BME280;61968;48.178;11.566;2023-02-14T09:41:53;97524.81;;;1.48;46.99
73671;BME280;61968;48.178;11.566;2023-02-14T09:44:25;97519.06;;;1.54;46.72
73671;BME280;61968;48.178;11.566;2023-02-14T09:47:04;97517.16;;;1.56;47.06
73671;BME280;61968;48.178;11.566;2023-02-14T09:49:35;97518.13;;;1.55;46.58
73671;BME280;61968;48.178;11.566;2023-02-14T09:52:03;97518.25;;;1.54;46.67
73671;BME280;61968;48.178;11.566;2023-02-14T09:54:33;97514.44;;;1.58;46.75
73671;BME280;61968;48.178;11.566;2023-02-14T09:57:03;97508.94;;;1.61;47.02
73671;BME280;61968;48.178;11.566;2023-02-14T09:59:38;97511.03;;;1.67;46.40
73671;BME280;61968;48.178;11.566;2023-02-14T10:02:21;97519.88;;;1.76;46.36
73671;BME280;61968;48.178;11.566;2023-02-14T10:04:58;97513.56;;;1.78;46.64
73671;BME280;61968;48.178;11.566;2023-02-14T10:07:36;97510.25;;;1.76;46.26
73671;BME280;61968;48.178;11.566;2023-02-14T10:10:12;97511.06;;;1.77;46.58
73671;BME280;61968;48.178;11.566;2023-02-14T10:12:49;97507.94;;;1.83;45.57
73671;BME280;61968;48.178;11.566;2023-02-14T10:15:19;97501.63;;;1.85;45.80
73671;BME280;61968;48.178;11.566;2023-02-14T10:17:51;97500.28;;;1.91;45.76
73671;BME280;61968;48.178;11.566;2023-02-14T10:20:23;97502.63;;;1.94;46.08
73671;BME280;61968;48.178;11.566;2023-02-14T10:22:59;97504.41;;;1.84;46.08
73671;BME280;61968;48.178;11.566;2023-02-14T10:25:33;97500.00;;;1.84;46.39
73671;BME280;61968;48.178;11.566;2023-02-14T10:28:03;97495.63;;;1.94;46.05
73671;BME280;61968;48.178;11.566;2023-02-14T10:30:38;97483.03;;;2.00;45.61
73671;BME280;61968;48.178;11.566;2023-02-14T10:33:12;97489.91;;;2.10;45.62
73671;BME280;61968;48.178;11.566;2023-02-14T10:35:45;97495.44;;;2.17;46.12
73671;BME280;61968;48.178;11.566;2023-02-14T10:38:23;97494.06;;;2.23;46.45
73671;BME280;61968;48.178;11.566;2023-02-14T10:41:15;97489.25;;;2.28;45.51
73671;BME280;61968;48.178;11.566;2023-02-14T10:43:48;97489.69;;;2.33;45.27
73671;BME280;61968;48.178;11.566;2023-02-14T10:46:28;97485.41;;;2.32;44.92
73671;BME280;61968;48.178;11.566;2023-02-14T10:49:12;97484.47;;;2.33;45.02
73671;BME280;61968;48.178;11.566;2023-02-14T10:51:49;97478.97;;;2.36;45.11
73671;BME280;61968;48.178;11.566;2023-02-14T10:54:20;97487.78;;;2.35;44.91
73671;BME280;61968;48.178;11.566;2023-02-14T10:56:51;97473.75;;;2.36;45.32
73671;BME280;61968;48.178;11.566;2023-02-14T10:59:23;97466.47;;;2.39;45.56
73671;BME280;61968;48.178;11.566;2023-02-14T11:01:52;97468.81;;;2.52;45.46
73671;BME280;61968;48.178;11.566;2023-02-14T11:04:21;97463.59;;;2.52;44.77
73671;BME280;61968;48.178;11.566;2023-02-14T11:06:49;97458.66;;;2.49;45.00
73671;BME280;61968;48.178;11.566;2023-02-14T11:09:16;97455.91;;;2.51;44.66
73671;BME280;61968;48.178;11.566;2023-02-14T11:11:45;97456.56;;;2.43;44.59
73671;BME280;61968;48.178;11.566;2023-02-14T11:14:25;97458.78;;;2.48;45.00
73671;BME280;61968;48.178;11.566;2023-02-14T11:16:53;97458.09;;;2.55;44.84
73671;BME280;61968;48.178;11.566;2023-02-14T11:19:24;97454.66;;;2.64;44.91
73671;BME280;61968;48.178;11.566;2023-02-14T11:21:53;97444.50;;;2.61;44.95
73671;BME280;61968;48.178;11.566;2023-02-14T11:24:29;97447.09;;;2.71;45.25
73671;BME280;61968;48.178;11.566;2023-02-14T11:26:58;97445.19;;;2.73;44.81
73671;BME280;61968;48.178;11.566;2023-02-14T11:29:30;97437.72;;;2.98;43.90
73671;BME280;61968;48.178;11.566;2023-02-14T11:32:06;97427.81;;;3.01;43.94
73671;BME280;61968;48.178;11.566;2023-02-14T11:34:37;97423.53;;;3.10;43.92
73671;BME280;61968;48.178;11.566;2023-02-14T11:37:16;97415.47;;;2.94;44.19
73671;BME280;61968;48.178;11.566;2023-02-14T11:39:44;97417.63;;;3.08;43.67
73671;BME280;61968;48.178;11.566;2023-02-14T11:42:11;97421.19;;;3.17;43.41
73671;BME280;61968;48.178;11.566;2023-02-14T11:44:53;97417.31;;;3.30;43.34
73671;BME280;61968;48.178;11.566;2023-02-14T11:47:26;97413.59;;;3.33;43.44
73671;BME280;61968;48.178;11.566;2023-02-14T11:49:56;97420.09;;;3.29;43.33
73671;BME280;61968;48.178;11.566;2023-02-14T11:52:25;97408.91;;;3.37;43.03
73671;BME280;61968;48.178;11.566;2023-02-14T11:54:54;97411.97;;;3.32;43.24
73671;BME280;61968;48.178;11.566;2023-02-14T11:57:22;97402.28;;;3.42;43.62
73671;BME280;61968;48.178;11.566;2023-02-14T11:59:52;97398.97;;;3.40;42.90
73671;BME280;61968;48.178;11.566;2023-02-14T12:02:26;97399.13;;;3.39;43.48
73671;BME280;61968;48.178;11.566;2023-02-14T12:04:57;97396.75;;;3.45;41.95
73671;BME280;61968;48.178;11.566;2023-02-14T12:07:28;97395.34;;;3.51;42.63
73671;BME280;61968;48.178;11.566;2023-02-14T12:10:17;97387.16;;;3.64;42.93
73671;BME280;61968;48.178;11.566;2023-02-14T12:12:49;97385.53;;;3.63;42.63
73671;BME280;61968;48.178;11.566;2023-02-14T12:15:33;97381.34;;;3.70;43.11
73671;BME280;61968;48.178;11.566;2023-02-14T12:18:42;97384.00;;;3.88;42.53
73671;BME280;61968;48.178;11.566;2023-02-14T12:21:22;97379.69;;;3.96;42.25
73671;BME280;61968;48.178;11.566;2023-02-14T12:23:57;97379.16;;;3.93;42.27
73671;BME280;61968;48.178;11.566;2023-02-14T12:26:29;97373.47;;;3.97;42.24
73671;BME280;61968;48.178;11.566;2023-02-14T12:29:01;97376.78;;;4.17;42.04
73671;BME280;61968;48.178;11.566;2023-02-14T12:31:31;97373.34;;;4.17;42.23
73671;BME280;61968;48.178;11.566;2023-02-14T12:33:57;97371.38;;;4.19;41.18
73671;BME280;61968;48.178;11.566;2023-02-14T12:36:31;97373.56;;;4.06;41.85
73671;BME280;61968;48.178;11.566;2023-02-14T12:39:04;97366.63;;;4.32;41.82
73671;BME280;61968;48.178;11.566;2023-02-14T12:41:43;97363.97;;;4.50;41.46
73671;BME280;61968;48.178;11.566;2023-02-14T12:44:17;97358.34;;;4.63;41.18
73671;BME280;61968;48.178;11.566;2023-02-14T12:47:06;97364.13;;;4.49;40.88
73671;BME280;61968;48.178;11.566;2023-02-14T12:49:50;97361.69;;;4.73;41.11
73671;BME280;61968;48.178;11.566;2023-02-14T12:52:32;97346.44;;;4.95;40.46
73671;BME280;61968;48.178;11.566;2023-02-14T12:55:17;97346.44;;;4.95;39.79
73671;BME280;61968;48.178;11.566;2023-02-14T12:57:53;97343.81;;;4.95;40.04
73671;BME280;61968;48.178;11.566;2023-02-14T13:00:28;97343.69;;;4.96;40.00
73671;BME280;61968;48.178;11.566;2023-02-14T13:03:32;97345.13;;;5.17;39.63
73671;BME280;61968;48.178;11.566;2023-02-14T13:06:12;97343.97;;;5.19;39.54
73671;BME280;61968;48.178;11.566;2023-02-14T13:08:57;97343.69;;;5.30;40.13
73671;BME280;61968;48.178;11.566;2023-02-14T13:11:35;97332.59;;;5.45;39.95
73671;BME280;61968;48.178;11.566;2023-02-14T13:14:14;97326.13;;;5.65;39.79
73671;BME280;61968;48.178;11.566;2023-02-14T13:16:52;97328.44;;;5.68;38.60
73671;BME280;61968;48.178;11.566;2023-02-14T13:19:30;97314.66;;;5.82;38.16